Time;durP1;ratioP1;P1;durP2;ratioP2;P2;SDS_P1;SDS_P2;PMS_P1;PMS_P2;Temp;Humidity;BMP_temperature;BMP_pressure;BME280_temperature;BME280_humidity;BME280_pressure;Samples;Min_cycle;Max_cycle;Signal;HPM_P1;HPM_P2
2022/04/25 13:48:39;;;;;;;2.65;2.45;;;21.70;70.80;;;;;;5998754;29;87233;-69
2022/04/25 13:51:42;;;;;;;2.92;2.72;;;21.70;70.70;;;;;;6014079;28;89472;-69
2022/04/25 13:54:44;;;;;;;2.92;2.72;;;21.70;70.60;;;;;;6006083;29;89065;-70
2022/04/25 13:57:46;;;;;;;2.67;2.47;;;21.70;70.60;;;;;;6012258;29;89105;-68
2022/04/25 14:00:48;;;;;;;2.78;2.55;;;21.70;70.80;;;;;;6011298;29;89168;-68
2022/04/25 14:03:52;;;;;;;3.50;2.53;;;21.70;70.80;;;;;;6037804;29;89318;-68
2022/04/25 14:06:54;;;;;;;3.00;2.70;;;21.70;70.80;;;;;;6000795;29;88495;-68
2022/04/25 14:09:57;;;;;;;2.80;2.60;;;21.70;70.80;;;;;;5990904;29;89090;-68
2022/04/25 14:12:59;;;;;;;3.80;2.50;;;21.70;70.80;;;;;;5998360;29;89129;-67
2022/04/25 14:16:02;;;;;;;2.95;2.65;;;21.70;70.80;;;;;;5999342;29;90063;-68
2022/04/25 14:19:05;;;;;;;2.90;2.70;;;21.70;70.80;;;;;;5999063;29;89773;-69
2022/04/25 14:22:07;;;;;;;2.95;2.65;;;21.70;70.80;;;;;;5990242;29;89152;-68
2022/04/25 14:25:10;;;;;;;2.60;2.40;;;21.70;70.70;;;;;;5990605;29;89046;-68
2022/04/25 14:28:12;;;;;;;2.67;2.47;;;21.70;70.70;;;;;;5992159;29;89453;-68
2022/04/25 14:31:15;;;;;;;2.50;2.30;;;21.70;70.80;;;;;;5994052;29;89193;-68
2022/04/25 14:34:18;;;;;;;2.70;2.50;;;21.70;70.70;;;;;;5990496;29;89206;-69
2022/04/25 14:37:20;;;;;;;3.63;2.70;;;21.70;70.80;;;;;;5991868;29;88506;-68
2022/04/25 14:40:22;;;;;;;3.25;2.70;;;21.70;70.90;;;;;;5991375;29;89408;-69
2022/04/25 14:43:25;;;;;;;2.65;2.40;;;21.70;71.00;;;;;;5991603;29;89431;-66
2022/04/25 14:46:27;;;;;;;3.80;2.33;;;21.70;71.10;;;;;;5990738;29;90066;-67
2022/04/25 14:56:08;;;;;;;2.50;2.30;;;21.70;71.30;;;;;;6014164;29;87390;-69
2022/04/25 14:59:10;;;;;;;2.90;2.55;;;21.70;71.50;;;;;;6015205;29;89140;-69
2022/04/25 15:02:12;;;;;;;5.35;2.55;;;21.70;71.60;;;;;;6014546;29;89087;-69
2022/04/25 15:05:16;;;;;;;2.50;2.30;;;21.70;71.60;;;;;;5999231;29;89118;-68
2022/04/25 15:08:18;;;;;;;3.85;2.58;;;21.70;71.50;;;;;;5994289;29;88412;-69
2022/04/25 15:11:20;;;;;;;2.80;2.50;;;21.70;71.60;;;;;;5994345;29;89062;-69
2022/04/25 15:14:23;;;;;;;8.85;2.75;;;21.70;71.60;;;;;;5994017;29;89401;-68
2022/04/25 15:17:25;;;;;;;3.25;2.53;;;21.70;71.60;;;;;;5993330;29;88996;-69
2022/04/25 15:20:28;;;;;;;3.00;2.30;;;21.80;71.70;;;;;;5993829;29;89467;-68
2022/04/25 15:23:30;;;;;;;2.80;2.25;;;21.80;71.60;;;;;;5994028;29;89067;-68
2022/04/25 15:26:32;;;;;;;3.05;2.22;;;21.70;71.60;;;;;;5994009;29;89078;-68
2022/04/25 15:29:37;;;;;;;2.30;2.10;;;21.80;71.60;;;;;;5994063;29;87865;-68
2022/04/25 15:32:40;;;;;;;2.28;2.08;;;21.70;71.60;;;;;;5993513;29;89215;-68
2022/04/25 15:35:44;;;;;;;2.40;2.20;;;21.70;71.50;;;;;;5993917;29;87691;-69
2022/04/25 15:38:46;;;;;;;2.67;2.47;;;21.70;71.50;;;;;;5993941;29;87543;-69
2022/04/25 15:41:48;;;;;;;2.85;2.17;;;21.70;71.50;;;;;;5993596;29;89067;-71
2022/04/25 15:48:10;;;;;;;2.50;2.30;;;21.80;71.50;;;;;;5993224;29;88009;-69
2022/04/25 15:51:13;;;;;;;2.30;2.10;;;21.70;71.50;;;;;;6002966;29;89209;-68
2022/04/25 15:57:50;;;;;;;3.15;2.40;;;21.70;71.40;;;;;;6016665;29;87422;-68
2022/04/25 16:00:52;;;;;;;2.40;2.20;;;21.70;71.40;;;;;;6016087;29;89205;-69
2022/04/25 16:03:54;;;;;;;2.33;2.13;;;21.70;71.30;;;;;;6016698;29;89170;-68
2022/04/25 16:06:57;;;;;;;2.40;2.20;;;21.80;71.30;;;;;;6020765;29;89501;-68
2022/04/25 16:09:59;;;;;;;2.55;2.35;;;21.70;71.30;;;;;;6021458;29;88397;-69
2022/04/25 16:13:03;;;;;;;2.60;2.40;;;21.70;71.20;;;;;;6020786;29;89173;-68
2022/04/25 16:19:26;;;;;;;2.45;2.17;;;21.70;71.20;;;;;;6019816;29;88217;-69
2022/04/25 16:22:29;;;;;;;2.20;2.00;;;21.70;71.30;;;;;;6019786;29;89471;-69
2022/04/25 16:25:32;;;;;;;2.40;2.20;;;21.70;71.20;;;;;;6020430;29;88334;-68
2022/04/25 16:28:34;;;;;;;2.33;2.13;;;21.80;71.30;;;;;;6019977;29;89090;-68
2022/04/25 16:31:36;;;;;;;2.53;2.33;;;21.70;71.10;;;;;;6019897;29;89118;-69
2022/04/25 16:34:38;;;;;;;2.50;2.30;;;21.70;71.20;;;;;;6019610;29;89293;-69
2022/04/25 16:37:41;;;;;;;2.28;2.10;;;21.70;71.20;;;;;;6019711;29;89546;-69
2022/04/25 16:40:43;;;;;;;2.10;1.90;;;21.70;71.20;;;;;;6019978;29;87304;-68
2022/04/25 16:43:45;;;;;;;1.95;1.85;;;21.70;71.20;;;;;;6020009;29;89056;-68
2022/04/25 16:46:49;;;;;;;2.50;2.30;;;21.70;71.20;;;;;;6019412;29;89387;-69
2022/04/25 16:49:51;;;;;;;1.95;1.85;;;21.70;71.10;;;;;;6018593;29;90194;-68
2022/04/25 16:52:57;;;;;;;2.20;2.00;;;21.70;71.10;;;;;;6019533;29;89075;-69
2022/04/25 16:55:59;;;;;;;1.85;1.75;;;21.70;71.10;;;;;;6019059;29;89118;-68
2022/04/25 16:59:01;;;;;;;2.25;2.05;;;21.80;71.10;;;;;;6019592;29;89168;-69
2022/04/25 17:02:04;;;;;;;2.67;1.95;;;21.70;71.00;;;;;;6019542;29;89043;-68
2022/04/25 17:05:07;;;;;;;2.40;2.20;;;21.70;71.00;;;;;;6019132;29;89125;-69
2022/04/25 17:08:10;;;;;;;2.22;2.03;;;21.70;71.00;;;;;;6019309;29;89299;-69
2022/04/25 17:11:30;;;;;;;2.10;1.90;;;21.80;71.10;;;;;;6019308;29;88741;-68
2022/04/25 17:14:33;;;;;;;2.75;2.00;;;21.70;71.00;;;;;;6019581;29;89121;-68
2022/04/25 17:17:35;;;;;;;2.20;2.00;;;21.70;71.00;;;;;;6018636;29;89041;-69
2022/04/25 17:20:36;;;;;;;2.25;2.05;;;21.70;71.00;;;;;;6018582;29;90517;-67
2022/04/25 17:23:40;;;;;;;2.17;2.00;;;21.70;71.00;;;;;;6019185;29;89177;-70
2022/04/25 17:26:42;;;;;;;2.53;2.10;;;21.70;71.10;;;;;;6019009;29;89021;-69
2022/04/25 17:29:44;;;;;;;2.25;2.05;;;21.70;71.10;;;;;;6019093;29;89084;-68
2022/04/25 17:36:06;;;;;;;2.03;1.92;;;21.70;71.00;;;;;;6018969;29;87065;-69
